sensor_id;sensor_type;location;lat;lon;timestamp;P1;durP1;ratioP1;P2;durP2;ratioP2
60243;SDS011;46106;51.468;5.814;2024-03-06T00:00:13;46.28;;;25.75;;
60243;SDS011;46106;51.468;5.814;2024-03-06T00:02:39;49.88;;;24.33;;
60243;SDS011;46106;51.468;5.814;2024-03-06T00:05:04;40.95;;;22.33;;
60243;SDS011;46106;51.468;5.814;2024-03-06T00:07:30;36.50;;;21.92;;
60243;SDS011;46106;51.468;5.814;2024-03-06T00:09:55;38.00;;;20.98;;
60243;SDS011;46106;51.468;5.814;2024-03-06T00:12:20;35.33;;;19.58;;
60243;SDS011;46106;51.468;5.814;2024-03-06T00:14:46;33.03;;;20.25;;
60243;SDS011;46106;51.468;5.814;2024-03-06T00:17:11;32.75;;;19.52;;
60243;SDS011;46106;51.468;5.814;2024-03-06T00:19:36;34.37;;;20.80;;
60243;SDS011;46106;51.468;5.814;2024-03-06T00:22:02;31.85;;;20.13;;
60243;SDS011;46106;51.468;5.814;2024-03-06T00:24:27;42.72;;;22.88;;
60243;SDS011;46106;51.468;5.814;2024-03-06T00:26:53;38.70;;;21.67;;
60243;SDS011;46106;51.468;5.814;2024-03-06T00:29:18;46.38;;;24.73;;
60243;SDS011;46106;51.468;5.814;2024-03-06T00:31:44;44.17;;;24.73;;
60243;SDS011;46106;51.468;5.814;2024-03-06T00:34:12;48.60;;;24.98;;
60243;SDS011;46106;51.468;5.814;2024-03-06T00:36:41;48.03;;;26.42;;
60243;SDS011;46106;51.468;5.814;2024-03-06T00:39:06;42.13;;;23.33;;
60243;SDS011;46106;51.468;5.814;2024-03-06T00:41:33;42.05;;;22.08;;
60243;SDS011;46106;51.468;5.814;2024-03-06T00:43:59;40.28;;;22.55;;
60243;SDS011;46106;51.468;5.814;2024-03-06T00:46:24;41.78;;;22.27;;
60243;SDS011;46106;51.468;5.814;2024-03-06T00:48:49;38.95;;;22.55;;
60243;SDS011;46106;51.468;5.814;2024-03-06T00:51:15;47.15;;;24.88;;
60243;SDS011;46106;51.468;5.814;2024-03-06T00:53:40;34.97;;;20.13;;
60243;SDS011;46106;51.468;5.814;2024-03-06T00:56:06;32.70;;;18.88;;
60243;SDS011;46106;51.468;5.814;2024-03-06T00:58:32;29.10;;;16.45;;
60243;SDS011;46106;51.468;5.814;2024-03-06T01:00:57;29.63;;;16.05;;
60243;SDS011;46106;51.468;5.814;2024-03-06T01:03:23;25.52;;;15.15;;
60243;SDS011;46106;51.468;5.814;2024-03-06T01:05:48;31.00;;;18.20;;
60243;SDS011;46106;51.468;5.814;2024-03-06T01:08:14;26.65;;;16.70;;
60243;SDS011;46106;51.468;5.814;2024-03-06T01:10:40;28.88;;;17.30;;
60243;SDS011;46106;51.468;5.814;2024-03-06T01:13:05;32.87;;;16.90;;
60243;SDS011;46106;51.468;5.814;2024-03-06T01:15:31;28.75;;;17.52;;
60243;SDS011;46106;51.468;5.814;2024-03-06T01:17:56;31.35;;;17.85;;
60243;SDS011;46106;51.468;5.814;2024-03-06T01:20:22;32.70;;;18.52;;
60243;SDS011;46106;51.468;5.814;2024-03-06T01:22:47;46.60;;;21.88;;
60243;SDS011;46106;51.468;5.814;2024-03-06T01:25:13;35.28;;;21.27;;
60243;SDS011;46106;51.468;5.814;2024-03-06T01:27:38;38.53;;;21.08;;
60243;SDS011;46106;51.468;5.814;2024-03-06T01:30:03;35.20;;;19.67;;
60243;SDS011;46106;51.468;5.814;2024-03-06T01:32:29;39.20;;;22.08;;
60243;SDS011;46106;51.468;5.814;2024-03-06T01:34:54;42.60;;;22.10;;
60243;SDS011;46106;51.468;5.814;2024-03-06T01:37:19;49.70;;;25.67;;
60243;SDS011;46106;51.468;5.814;2024-03-06T01:39:45;51.33;;;24.50;;
60243;SDS011;46106;51.468;5.814;2024-03-06T01:42:10;57.45;;;28.52;;
60243;SDS011;46106;51.468;5.814;2024-03-06T01:44:35;45.97;;;24.83;;
60243;SDS011;46106;51.468;5.814;2024-03-06T01:47:01;45.70;;;23.95;;
60243;SDS011;46106;51.468;5.814;2024-03-06T01:49:26;40.23;;;23.87;;
60243;SDS011;46106;51.468;5.814;2024-03-06T01:51:53;37.33;;;19.38;;
60243;SDS011;46106;51.468;5.814;2024-03-06T01:54:19;36.67;;;19.67;;
60243;SDS011;46106;51.468;5.814;2024-03-06T01:56:44;32.38;;;19.52;;
60243;SDS011;46106;51.468;5.814;2024-03-06T01:59:13;47.67;;;20.10;;
60243;SDS011;46106;51.468;5.814;2024-03-06T02:01:40;32.55;;;19.15;;
60243;SDS011;46106;51.468;5.814;2024-03-06T02:04:06;41.72;;;21.00;;
60243;SDS011;46106;51.468;5.814;2024-03-06T02:06:32;46.17;;;19.48;;
60243;SDS011;46106;51.468;5.814;2024-03-06T02:08:57;45.55;;;22.75;;
60243;SDS011;46106;51.468;5.814;2024-03-06T02:11:22;44.10;;;22.02;;
60243;SDS011;46106;51.468;5.814;2024-03-06T02:13:49;60.95;;;24.13;;
60243;SDS011;46106;51.468;5.814;2024-03-06T02:16:14;53.40;;;23.55;;
60243;SDS011;46106;51.468;5.814;2024-03-06T02:18:50;43.97;;;23.38;;
60243;SDS011;46106;51.468;5.814;2024-03-06T02:21:16;39.00;;;21.10;;
60243;SDS011;46106;51.468;5.814;2024-03-06T02:23:41;41.58;;;22.27;;
60243;SDS011;46106;51.468;5.814;2024-03-06T02:26:07;45.43;;;22.03;;
60243;SDS011;46106;51.468;5.814;2024-03-06T02:28:32;46.67;;;23.13;;
60243;SDS011;46106;51.468;5.814;2024-03-06T02:30:59;61.90;;;24.92;;
60243;SDS011;46106;51.468;5.814;2024-03-06T02:33:25;49.87;;;23.20;;
60243;SDS011;46106;51.468;5.814;2024-03-06T02:35:50;58.28;;;24.48;;
60243;SDS011;46106;51.468;5.814;2024-03-06T02:38:15;137.70;;;28.48;;
60243;SDS011;46106;51.468;5.814;2024-03-06T02:40:42;282.85;;;30.38;;
60243;SDS011;46106;51.468;5.814;2024-03-06T02:43:07;328.48;;;35.08;;
60243;SDS011;46106;51.468;5.814;2024-03-06T02:45:33;69.15;;;26.30;;
60243;SDS011;46106;51.468;5.814;2024-03-06T02:47:58;44.58;;;24.27;;
60243;SDS011;46106;51.468;5.814;2024-03-06T02:50:24;59.47;;;25.58;;
60243;SDS011;46106;51.468;5.814;2024-03-06T02:52:49;343.05;;;35.15;;
60243;SDS011;46106;51.468;5.814;2024-03-06T02:55:16;237.57;;;30.75;;
60243;SDS011;46106;51.468;5.814;2024-03-06T02:57:41;161.60;;;24.50;;
60243;SDS011;46106;51.468;5.814;2024-03-06T03:00:07;141.55;;;24.35;;
60243;SDS011;46106;51.468;5.814;2024-03-06T03:02:38;75.22;;;23.77;;
60243;SDS011;46106;51.468;5.814;2024-03-06T03:05:03;187.23;;;27.20;;
60243;SDS011;46106;51.468;5.814;2024-03-06T03:07:29;399.08;;;40.40;;
60243;SDS011;46106;51.468;5.814;2024-03-06T03:09:55;133.05;;;26.58;;
60243;SDS011;46106;51.468;5.814;2024-03-06T03:12:20;301.67;;;34.60;;
60243;SDS011;46106;51.468;5.814;2024-03-06T03:14:45;411.38;;;42.47;;
60243;SDS011;46106;51.468;5.814;2024-03-06T03:17:11;227.73;;;30.63;;
60243;SDS011;46106;51.468;5.814;2024-03-06T03:19:37;85.13;;;26.95;;
60243;SDS011;46106;51.468;5.814;2024-03-06T03:22:05;171.63;;;31.77;;
60243;SDS011;46106;51.468;5.814;2024-03-06T03:24:30;124.30;;;28.23;;
60243;SDS011;46106;51.468;5.814;2024-03-06T03:26:56;282.05;;;38.88;;
60243;SDS011;46106;51.468;5.814;2024-03-06T03:29:21;179.18;;;31.52;;
60243;SDS011;46106;51.468;5.814;2024-03-06T03:31:47;223.88;;;33.95;;
60243;SDS011;46106;51.468;5.814;2024-03-06T03:34:12;246.32;;;33.85;;
60243;SDS011;46106;51.468;5.814;2024-03-06T03:36:41;160.48;;;30.40;;
60243;SDS011;46106;51.468;5.814;2024-03-06T03:39:07;112.57;;;26.02;;
60243;SDS011;46106;51.468;5.814;2024-03-06T03:41:42;141.25;;;28.15;;
60243;SDS011;46106;51.468;5.814;2024-03-06T03:44:07;171.10;;;25.50;;
60243;SDS011;46106;51.468;5.814;2024-03-06T03:46:32;128.48;;;23.17;;
60243;SDS011;46106;51.468;5.814;2024-03-06T03:48:58;163.00;;;23.92;;
60243;SDS011;46106;51.468;5.814;2024-03-06T03:51:23;104.78;;;26.35;;
60243;SDS011;46106;51.468;5.814;2024-03-06T03:53:48;80.60;;;26.92;;
60243;SDS011;46106;51.468;5.814;2024-03-06T03:56:15;139.77;;;23.05;;
60243;SDS011;46106;51.468;5.814;2024-03-06T03:58:41;70.70;;;20.02;;
60243;SDS011;46106;51.468;5.814;2024-03-06T04:01:06;35.35;;;20.05;;
60243;SDS011;46106;51.468;5.814;2024-03-06T04:03:35;66.38;;;20.45;;
60243;SDS011;46106;51.468;5.814;2024-03-06T04:06:01;76.82;;;21.08;;
60243;SDS011;46106;51.468;5.814;2024-03-06T04:08:26;57.33;;;20.70;;
60243;SDS011;46106;51.468;5.814;2024-03-06T04:10:52;128.43;;;23.10;;
60243;SDS011;46106;51.468;5.814;2024-03-06T04:13:17;41.47;;;21.03;;
60243;SDS011;46106;51.468;5.814;2024-03-06T04:15:44;140.00;;;23.67;;
60243;SDS011;46106;51.468;5.814;2024-03-06T04:18:09;135.32;;;23.88;;
60243;SDS011;46106;51.468;5.814;2024-03-06T04:20:35;216.87;;;26.00;;
60243;SDS011;46106;51.468;5.814;2024-03-06T04:23:01;226.73;;;29.13;;
60243;SDS011;46106;51.468;5.814;2024-03-06T04:25:26;276.15;;;27.88;;
60243;SDS011;46106;51.468;5.814;2024-03-06T04:27:52;100.25;;;25.63;;
60243;SDS011;46106;51.468;5.814;2024-03-06T04:30:17;134.50;;;25.23;;
60243;SDS011;46106;51.468;5.814;2024-03-06T04:32:42;101.47;;;23.35;;
60243;SDS011;46106;51.468;5.814;2024-03-06T04:35:08;117.03;;;26.38;;
60243;SDS011;46106;51.468;5.814;2024-03-06T04:37:34;131.40;;;23.73;;
60243;SDS011;46106;51.468;5.814;2024-03-06T04:40:00;102.07;;;21.83;;
60243;SDS011;46106;51.468;5.814;2024-03-06T04:42:25;87.47;;;22.30;;
60243;SDS011;46106;51.468;5.814;2024-03-06T04:44:50;106.15;;;19.88;;
60243;SDS011;46106;51.468;5.814;2024-03-06T04:47:16;62.50;;;18.58;;
60243;SDS011;46106;51.468;5.814;2024-03-06T04:49:41;45.00;;;15.35;;
60243;SDS011;46106;51.468;5.814;2024-03-06T04:52:07;42.85;;;15.90;;
60243;SDS011;46106;51.468;5.814;2024-03-06T04:54:34;55.08;;;17.60;;
60243;SDS011;46106;51.468;5.814;2024-03-06T04:56:59;25.08;;;15.07;;
60243;SDS011;46106;51.468;5.814;2024-03-06T04:59:24;21.65;;;14.13;;
60243;SDS011;46106;51.468;5.814;2024-03-06T05:01:51;22.38;;;15.65;;
60243;SDS011;46106;51.468;5.814;2024-03-06T05:04:16;31.45;;;15.70;;
60243;SDS011;46106;51.468;5.814;2024-03-06T05:06:41;25.50;;;16.92;;
60243;SDS011;46106;51.468;5.814;2024-03-06T05:09:07;28.23;;;15.73;;
60243;SDS011;46106;51.468;5.814;2024-03-06T05:11:32;24.65;;;15.82;;
60243;SDS011;46106;51.468;5.814;2024-03-06T05:13:58;26.25;;;17.00;;
60243;SDS011;46106;51.468;5.814;2024-03-06T05:16:24;23.05;;;16.15;;
60243;SDS011;46106;51.468;5.814;2024-03-06T05:18:49;22.83;;;16.15;;
60243;SDS011;46106;51.468;5.814;2024-03-06T05:21:14;55.72;;;17.85;;
60243;SDS011;46106;51.468;5.814;2024-03-06T05:23:40;60.67;;;17.98;;
60243;SDS011;46106;51.468;5.814;2024-03-06T05:26:05;36.90;;;17.77;;
60243;SDS011;46106;51.468;5.814;2024-03-06T05:28:30;39.60;;;15.27;;
60243;SDS011;46106;51.468;5.814;2024-03-06T05:30:56;60.13;;;16.23;;
60243;SDS011;46106;51.468;5.814;2024-03-06T05:33:21;85.38;;;16.52;;
60243;SDS011;46106;51.468;5.814;2024-03-06T05:35:47;163.77;;;19.45;;
60243;SDS011;46106;51.468;5.814;2024-03-06T05:38:12;62.25;;;17.38;;
60243;SDS011;46106;51.468;5.814;2024-03-06T05:40:37;116.80;;;19.53;;
60243;SDS011;46106;51.468;5.814;2024-03-06T05:43:05;109.90;;;19.95;;
60243;SDS011;46106;51.468;5.814;2024-03-06T05:45:30;63.30;;;16.02;;
60243;SDS011;46106;51.468;5.814;2024-03-06T05:47:55;97.90;;;19.23;;
60243;SDS011;46106;51.468;5.814;2024-03-06T05:50:21;131.00;;;17.70;;
60243;SDS011;46106;51.468;5.814;2024-03-06T05:52:46;77.20;;;18.07;;
60243;SDS011;46106;51.468;5.814;2024-03-06T05:55:11;64.53;;;17.53;;
60243;SDS011;46106;51.468;5.814;2024-03-06T05:57:36;32.50;;;16.05;;
60243;SDS011;46106;51.468;5.814;2024-03-06T06:00:02;25.27;;;16.77;;
60243;SDS011;46106;51.468;5.814;2024-03-06T06:02:29;32.85;;;17.67;;
60243;SDS011;46106;51.468;5.814;2024-03-06T06:04:55;26.35;;;17.17;;
60243;SDS011;46106;51.468;5.814;2024-03-06T06:07:20;26.70;;;17.05;;
60243;SDS011;46106;51.468;5.814;2024-03-06T06:09:45;26.30;;;16.83;;
60243;SDS011;46106;51.468;5.814;2024-03-06T06:12:11;27.05;;;17.95;;
60243;SDS011;46106;51.468;5.814;2024-03-06T06:14:36;25.05;;;16.90;;
60243;SDS011;46106;51.468;5.814;2024-03-06T06:17:01;46.00;;;18.88;;
60243;SDS011;46106;51.468;5.814;2024-03-06T06:19:28;26.65;;;17.02;;
60243;SDS011;46106;51.468;5.814;2024-03-06T06:21:53;61.05;;;19.58;;
60243;SDS011;46106;51.468;5.814;2024-03-06T06:24:19;28.45;;;17.83;;
60243;SDS011;46106;51.468;5.814;2024-03-06T06:26:44;34.97;;;19.50;;
60243;SDS011;46106;51.468;5.814;2024-03-06T06:29:09;32.80;;;19.10;;
60243;SDS011;46106;51.468;5.814;2024-03-06T06:31:35;34.07;;;19.20;;
60243;SDS011;46106;51.468;5.814;2024-03-06T06:34:00;34.75;;;19.80;;
60243;SDS011;46106;51.468;5.814;2024-03-06T06:36:25;31.33;;;19.05;;
60243;SDS011;46106;51.468;5.814;2024-03-06T06:38:51;29.20;;;18.35;;
60243;SDS011;46106;51.468;5.814;2024-03-06T06:41:17;27.48;;;16.55;;
60243;SDS011;46106;51.468;5.814;2024-03-06T06:43:42;34.88;;;15.27;;
60243;SDS011;46106;51.468;5.814;2024-03-06T06:46:08;73.82;;;16.20;;
60243;SDS011;46106;51.468;5.814;2024-03-06T06:48:33;34.50;;;17.15;;
60243;SDS011;46106;51.468;5.814;2024-03-06T06:51:01;44.63;;;16.20;;
60243;SDS011;46106;51.468;5.814;2024-03-06T06:53:30;40.78;;;16.60;;
60243;SDS011;46106;51.468;5.814;2024-03-06T06:55:55;32.22;;;17.35;;
60243;SDS011;46106;51.468;5.814;2024-03-06T06:58:20;27.35;;;17.42;;
60243;SDS011;46106;51.468;5.814;2024-03-06T07:00:46;34.40;;;17.30;;
60243;SDS011;46106;51.468;5.814;2024-03-06T07:03:11;36.50;;;17.67;;
60243;SDS011;46106;51.468;5.814;2024-03-06T07:05:36;30.20;;;18.05;;
60243;SDS011;46106;51.468;5.814;2024-03-06T07:08:02;45.88;;;18.05;;
60243;SDS011;46106;51.468;5.814;2024-03-06T07:10:27;53.33;;;18.38;;
60243;SDS011;46106;51.468;5.814;2024-03-06T07:12:52;92.35;;;18.70;;
60243;SDS011;46106;51.468;5.814;2024-03-06T07:15:18;38.20;;;17.23;;
60243;SDS011;46106;51.468;5.814;2024-03-06T07:17:43;77.50;;;18.02;;
60243;SDS011;46106;51.468;5.814;2024-03-06T07:20:08;87.53;;;17.55;;
60243;SDS011;46106;51.468;5.814;2024-03-06T07:22:35;86.88;;;21.90;;
60243;SDS011;46106;51.468;5.814;2024-03-06T07:25:00;151.45;;;21.52;;
60243;SDS011;46106;51.468;5.814;2024-03-06T07:27:27;97.05;;;20.08;;
60243;SDS011;46106;51.468;5.814;2024-03-06T07:29:52;170.63;;;23.50;;
60243;SDS011;46106;51.468;5.814;2024-03-06T07:32:18;94.22;;;19.65;;
60243;SDS011;46106;51.468;5.814;2024-03-06T07:34:44;44.17;;;18.63;;
60243;SDS011;46106;51.468;5.814;2024-03-06T07:37:09;126.35;;;21.92;;
60243;SDS011;46106;51.468;5.814;2024-03-06T07:39:34;129.98;;;21.25;;
60243;SDS011;46106;51.468;5.814;2024-03-06T07:42:00;112.70;;;22.98;;
60243;SDS011;46106;51.468;5.814;2024-03-06T07:44:25;104.15;;;25.60;;
60243;SDS011;46106;51.468;5.814;2024-03-06T07:46:51;107.70;;;24.25;;
60243;SDS011;46106;51.468;5.814;2024-03-06T07:49:18;103.30;;;25.88;;
60243;SDS011;46106;51.468;5.814;2024-03-06T07:51:43;112.17;;;22.73;;
60243;SDS011;46106;51.468;5.814;2024-03-06T07:54:09;165.30;;;25.45;;
60243;SDS011;46106;51.468;5.814;2024-03-06T07:56:34;141.05;;;26.23;;
60243;SDS011;46106;51.468;5.814;2024-03-06T07:59:00;250.23;;;27.83;;
60243;SDS011;46106;51.468;5.814;2024-03-06T08:01:25;234.95;;;30.15;;
60243;SDS011;46106;51.468;5.814;2024-03-06T08:03:51;119.97;;;26.80;;
60243;SDS011;46106;51.468;5.814;2024-03-06T08:06:16;122.57;;;25.65;;
60243;SDS011;46106;51.468;5.814;2024-03-06T08:08:42;71.20;;;24.42;;
60243;SDS011;46106;51.468;5.814;2024-03-06T08:11:09;123.97;;;24.20;;
60243;SDS011;46106;51.468;5.814;2024-03-06T08:13:36;80.72;;;25.40;;
60243;SDS011;46106;51.468;5.814;2024-03-06T08:16:01;109.43;;;23.17;;
60243;SDS011;46106;51.468;5.814;2024-03-06T08:18:26;59.95;;;23.88;;
60243;SDS011;46106;51.468;5.814;2024-03-06T08:20:52;54.90;;;25.33;;
60243;SDS011;46106;51.468;5.814;2024-03-06T08:23:18;42.00;;;25.35;;
60243;SDS011;46106;51.468;5.814;2024-03-06T08:25:43;45.10;;;28.60;;
60243;SDS011;46106;51.468;5.814;2024-03-06T08:28:08;38.03;;;26.73;;
60243;SDS011;46106;51.468;5.814;2024-03-06T08:30:34;41.83;;;25.38;;
60243;SDS011;46106;51.468;5.814;2024-03-06T08:33:00;37.22;;;25.45;;
60243;SDS011;46106;51.468;5.814;2024-03-06T08:35:25;33.50;;;23.10;;
60243;SDS011;46106;51.468;5.814;2024-03-06T08:37:51;32.20;;;22.63;;
60243;SDS011;46106;51.468;5.814;2024-03-06T08:40:16;24.33;;;18.47;;
60243;SDS011;46106;51.468;5.814;2024-03-06T08:42:43;48.45;;;20.02;;
60243;SDS011;46106;51.468;5.814;2024-03-06T08:45:08;25.15;;;18.48;;
60243;SDS011;46106;51.468;5.814;2024-03-06T08:47:34;24.17;;;16.70;;
60243;SDS011;46106;51.468;5.814;2024-03-06T08:49:59;23.95;;;16.83;;
60243;SDS011;46106;51.468;5.814;2024-03-06T08:52:24;22.43;;;15.57;;
60243;SDS011;46106;51.468;5.814;2024-03-06T08:54:49;18.83;;;14.53;;
60243;SDS011;46106;51.468;5.814;2024-03-06T08:57:15;17.97;;;13.73;;
60243;SDS011;46106;51.468;5.814;2024-03-06T08:59:41;18.65;;;13.52;;
60243;SDS011;46106;51.468;5.814;2024-03-06T09:02:17;19.30;;;12.30;;
60243;SDS011;46106;51.468;5.814;2024-03-06T09:04:43;15.93;;;11.65;;
60243;SDS011;46106;51.468;5.814;2024-03-06T09:07:09;15.50;;;11.82;;
60243;SDS011;46106;51.468;5.814;2024-03-06T09:09:35;14.60;;;12.15;;
60243;SDS011;46106;51.468;5.814;2024-03-06T09:12:00;14.73;;;11.10;;
60243;SDS011;46106;51.468;5.814;2024-03-06T09:14:26;16.42;;;10.68;;
60243;SDS011;46106;51.468;5.814;2024-03-06T09:16:51;26.47;;;11.20;;
60243;SDS011;46106;51.468;5.814;2024-03-06T09:19:16;16.17;;;11.18;;
60243;SDS011;46106;51.468;5.814;2024-03-06T09:21:41;17.38;;;11.05;;
60243;SDS011;46106;51.468;5.814;2024-03-06T09:24:07;23.27;;;11.30;;
60243;SDS011;46106;51.468;5.814;2024-03-06T09:26:32;16.23;;;11.50;;
60243;SDS011;46106;51.468;5.814;2024-03-06T09:28:57;18.02;;;10.65;;
60243;SDS011;46106;51.468;5.814;2024-03-06T09:31:23;13.23;;;10.27;;
60243;SDS011;46106;51.468;5.814;2024-03-06T09:33:48;17.83;;;10.80;;
60243;SDS011;46106;51.468;5.814;2024-03-06T09:36:13;16.33;;;11.68;;
60243;SDS011;46106;51.468;5.814;2024-03-06T09:38:39;13.93;;;10.00;;
60243;SDS011;46106;51.468;5.814;2024-03-06T09:41:05;17.85;;;10.27;;
60243;SDS011;46106;51.468;5.814;2024-03-06T09:43:32;14.00;;;9.95;;
60243;SDS011;46106;51.468;5.814;2024-03-06T09:45:57;15.45;;;9.43;;
60243;SDS011;46106;51.468;5.814;2024-03-06T09:48:22;11.98;;;9.02;;
60243;SDS011;46106;51.468;5.814;2024-03-06T09:50:49;17.25;;;9.60;;
60243;SDS011;46106;51.468;5.814;2024-03-06T09:53:15;13.30;;;9.07;;
60243;SDS011;46106;51.468;5.814;2024-03-06T09:55:41;15.10;;;8.95;;
60243;SDS011;46106;51.468;5.814;2024-03-06T09:58:07;14.02;;;9.55;;
60243;SDS011;46106;51.468;5.814;2024-03-06T10:00:34;12.23;;;8.80;;
60243;SDS011;46106;51.468;5.814;2024-03-06T10:03:00;12.93;;;8.90;;
60243;SDS011;46106;51.468;5.814;2024-03-06T10:05:26;12.00;;;8.88;;
60243;SDS011;46106;51.468;5.814;2024-03-06T10:07:52;13.73;;;8.35;;
60243;SDS011;46106;51.468;5.814;2024-03-06T10:10:18;12.15;;;8.57;;
60243;SDS011;46106;51.468;5.814;2024-03-06T10:12:47;11.60;;;8.18;;
60243;SDS011;46106;51.468;5.814;2024-03-06T10:15:15;13.32;;;8.82;;
60243;SDS011;46106;51.468;5.814;2024-03-06T10:17:40;16.75;;;10.60;;
60243;SDS011;46106;51.468;5.814;2024-03-06T10:22:51;15.27;;;9.65;;
60243;SDS011;46106;51.468;5.814;2024-03-06T10:25:19;14.52;;;10.25;;
60243;SDS011;46106;51.468;5.814;2024-03-06T10:27:46;12.07;;;8.32;;
60243;SDS011;46106;51.468;5.814;2024-03-06T10:30:11;10.57;;;8.13;;
60243;SDS011;46106;51.468;5.814;2024-03-06T10:32:41;13.60;;;7.88;;
60243;SDS011;46106;51.468;5.814;2024-03-06T10:35:17;13.18;;;7.70;;
60243;SDS011;46106;51.468;5.814;2024-03-06T10:37:42;10.85;;;7.28;;
60243;SDS011;46106;51.468;5.814;2024-03-06T10:40:09;13.00;;;6.80;;
60243;SDS011;46106;51.468;5.814;2024-03-06T10:42:38;11.88;;;7.57;;
60243;SDS011;46106;51.468;5.814;2024-03-06T10:45:06;11.32;;;7.55;;
60243;SDS011;46106;51.468;5.814;2024-03-06T10:47:32;13.32;;;7.10;;
60243;SDS011;46106;51.468;5.814;2024-03-06T10:49:59;8.95;;;6.97;;
60243;SDS011;46106;51.468;5.814;2024-03-06T10:52:25;9.13;;;6.68;;
60243;SDS011;46106;51.468;5.814;2024-03-06T10:54:52;10.98;;;6.80;;
60243;SDS011;46106;51.468;5.814;2024-03-06T10:57:18;9.88;;;7.65;;
60243;SDS011;46106;51.468;5.814;2024-03-06T10:59:44;11.23;;;6.97;;
60243;SDS011;46106;51.468;5.814;2024-03-06T11:02:10;8.68;;;5.57;;
60243;SDS011;46106;51.468;5.814;2024-03-06T11:04:37;7.60;;;5.05;;
60243;SDS011;46106;51.468;5.814;2024-03-06T11:07:05;7.75;;;4.90;;
60243;SDS011;46106;51.468;5.814;2024-03-06T11:09:33;8.65;;;5.13;;
60243;SDS011;46106;51.468;5.814;2024-03-06T11:12:05;4.35;;;3.13;;
60243;SDS011;46106;51.468;5.814;2024-03-06T11:14:37;4.88;;;3.92;;
60243;SDS011;46106;51.468;5.814;2024-03-06T11:17:09;8.18;;;5.30;;
60243;SDS011;46106;51.468;5.814;2024-03-06T11:22:18;7.45;;;5.10;;
60243;SDS011;46106;51.468;5.814;2024-03-06T11:25:04;9.10;;;4.95;;
60243;SDS011;46106;51.468;5.814;2024-03-06T11:27:29;11.23;;;5.70;;
60243;SDS011;46106;51.468;5.814;2024-03-06T11:30:05;7.87;;;5.33;;
60243;SDS011;46106;51.468;5.814;2024-03-06T11:32:59;7.57;;;5.60;;
60243;SDS011;46106;51.468;5.814;2024-03-06T11:35:27;7.70;;;5.45;;
60243;SDS011;46106;51.468;5.814;2024-03-06T11:37:53;9.15;;;5.40;;
60243;SDS011;46106;51.468;5.814;2024-03-06T11:40:25;8.75;;;4.82;;
60243;SDS011;46106;51.468;5.814;2024-03-06T11:42:50;6.72;;;5.35;;
60243;SDS011;46106;51.468;5.814;2024-03-06T11:45:17;9.10;;;4.85;;
60243;SDS011;46106;51.468;5.814;2024-03-06T11:48:00;5.70;;;4.22;;
60243;SDS011;46106;51.468;5.814;2024-03-06T11:50:26;5.03;;;3.67;;
60243;SDS011;46106;51.468;5.814;2024-03-06T11:52:51;8.30;;;5.25;;
60243;SDS011;46106;51.468;5.814;2024-03-06T11:55:16;10.43;;;7.47;;
60243;SDS011;46106;51.468;5.814;2024-03-06T11:57:42;10.98;;;6.90;;
60243;SDS011;46106;51.468;5.814;2024-03-06T12:00:07;10.68;;;7.20;;
60243;SDS011;46106;51.468;5.814;2024-03-06T12:02:35;11.77;;;6.75;;
60243;SDS011;46106;51.468;5.814;2024-03-06T12:05:01;11.50;;;8.10;;
60243;SDS011;46106;51.468;5.814;2024-03-06T12:07:28;11.70;;;7.13;;
60243;SDS011;46106;51.468;5.814;2024-03-06T12:09:53;15.15;;;7.28;;
60243;SDS011;46106;51.468;5.814;2024-03-06T12:12:18;10.68;;;6.80;;
60243;SDS011;46106;51.468;5.814;2024-03-06T12:14:44;11.40;;;8.03;;
60243;SDS011;46106;51.468;5.814;2024-03-06T12:17:20;11.02;;;6.10;;
60243;SDS011;46106;51.468;5.814;2024-03-06T12:19:45;12.82;;;6.00;;
60243;SDS011;46106;51.468;5.814;2024-03-06T12:22:11;10.47;;;6.03;;
60243;SDS011;46106;51.468;5.814;2024-03-06T12:24:36;10.35;;;6.82;;
60243;SDS011;46106;51.468;5.814;2024-03-06T12:27:03;12.02;;;6.43;;
60243;SDS011;46106;51.468;5.814;2024-03-06T12:29:29;9.25;;;6.25;;
60243;SDS011;46106;51.468;5.814;2024-03-06T12:31:57;9.93;;;6.30;;
60243;SDS011;46106;51.468;5.814;2024-03-06T12:34:23;11.98;;;6.10;;
60243;SDS011;46106;51.468;5.814;2024-03-06T12:36:48;7.85;;;5.45;;
60243;SDS011;46106;51.468;5.814;2024-03-06T12:39:14;12.43;;;5.68;;
60243;SDS011;46106;51.468;5.814;2024-03-06T12:41:43;7.97;;;4.97;;
60243;SDS011;46106;51.468;5.814;2024-03-06T12:44:08;7.53;;;5.03;;
60243;SDS011;46106;51.468;5.814;2024-03-06T12:46:33;7.15;;;5.00;;
60243;SDS011;46106;51.468;5.814;2024-03-06T12:48:58;7.97;;;4.70;;
60243;SDS011;46106;51.468;5.814;2024-03-06T12:51:24;7.17;;;5.20;;
60243;SDS011;46106;51.468;5.814;2024-03-06T12:53:49;8.52;;;5.05;;
60243;SDS011;46106;51.468;5.814;2024-03-06T12:56:15;5.85;;;4.43;;
60243;SDS011;46106;51.468;5.814;2024-03-06T12:58:40;11.40;;;5.18;;
60243;SDS011;46106;51.468;5.814;2024-03-06T13:01:05;9.32;;;5.32;;
60243;SDS011;46106;51.468;5.814;2024-03-06T13:03:31;9.55;;;6.03;;
60243;SDS011;46106;51.468;5.814;2024-03-06T13:05:57;9.73;;;5.85;;
60243;SDS011;46106;51.468;5.814;2024-03-06T13:08:22;10.20;;;5.93;;
60243;SDS011;46106;51.468;5.814;2024-03-06T13:10:47;10.43;;;6.60;;
60243;SDS011;46106;51.468;5.814;2024-03-06T13:13:12;7.22;;;5.35;;
60243;SDS011;46106;51.468;5.814;2024-03-06T13:15:38;7.50;;;5.87;;
60243;SDS011;46106;51.468;5.814;2024-03-06T13:18:03;9.43;;;6.07;;
60243;SDS011;46106;51.468;5.814;2024-03-06T13:20:29;8.02;;;6.05;;
60243;SDS011;46106;51.468;5.814;2024-03-06T13:22:55;12.20;;;6.38;;
60243;SDS011;46106;51.468;5.814;2024-03-06T13:25:21;9.10;;;6.50;;
60243;SDS011;46106;51.468;5.814;2024-03-06T13:27:46;8.48;;;5.90;;
60243;SDS011;46106;51.468;5.814;2024-03-06T13:30:12;7.47;;;5.40;;
60243;SDS011;46106;51.468;5.814;2024-03-06T13:32:37;8.63;;;6.00;;
60243;SDS011;46106;51.468;5.814;2024-03-06T13:35:03;9.75;;;6.07;;
60243;SDS011;46106;51.468;5.814;2024-03-06T13:37:28;9.50;;;5.68;;
60243;SDS011;46106;51.468;5.814;2024-03-06T13:39:53;8.63;;;5.47;;
60243;SDS011;46106;51.468;5.814;2024-03-06T13:42:23;8.45;;;6.00;;
60243;SDS011;46106;51.468;5.814;2024-03-06T13:44:48;11.07;;;6.60;;
60243;SDS011;46106;51.468;5.814;2024-03-06T13:47:14;9.03;;;6.30;;
60243;SDS011;46106;51.468;5.814;2024-03-06T13:49:42;10.82;;;6.13;;
60243;SDS011;46106;51.468;5.814;2024-03-06T13:52:08;11.85;;;6.90;;
60243;SDS011;46106;51.468;5.814;2024-03-06T13:54:37;12.95;;;8.40;;
60243;SDS011;46106;51.468;5.814;2024-03-06T13:57:03;11.73;;;6.90;;
60243;SDS011;46106;51.468;5.814;2024-03-06T13:59:29;7.65;;;6.47;;
60243;SDS011;46106;51.468;5.814;2024-03-06T14:01:55;8.05;;;7.00;;
60243;SDS011;46106;51.468;5.814;2024-03-06T14:04:20;9.50;;;7.25;;
60243;SDS011;46106;51.468;5.814;2024-03-06T14:06:46;12.57;;;8.47;;
60243;SDS011;46106;51.468;5.814;2024-03-06T14:09:11;15.13;;;8.70;;
60243;SDS011;46106;51.468;5.814;2024-03-06T14:11:38;15.43;;;9.45;;
60243;SDS011;46106;51.468;5.814;2024-03-06T14:14:04;11.27;;;7.85;;
60243;SDS011;46106;51.468;5.814;2024-03-06T14:16:29;13.63;;;8.82;;
60243;SDS011;46106;51.468;5.814;2024-03-06T14:18:55;11.77;;;8.10;;
60243;SDS011;46106;51.468;5.814;2024-03-06T14:21:20;12.07;;;9.35;;
60243;SDS011;46106;51.468;5.814;2024-03-06T14:23:46;18.23;;;8.20;;